Airfield :
LOGIN :

Register | Disclaimer

   EN    FR    IT 

 










Legend :    VFR   Marginal VFR   IFR   Intensive IFR   Very Intensive IFR
Visi :
Ceiling :
>= 8 km
>= 3000ft
5 to 8 km
1000 to 3000 ft
1500m to 5 km
500 to 1000 ft
800 to 1500m
200 to 500 ft
< 800m
< 200 ft
Symbols :   Thunderstorms  Fog  Heavy snow  Heavy precipitations  Wind > 20 kt
SIGMETs :     Misc.  Thunderstorms  Icing  Turbulence  Mountain Waves  Volcanic Ashes






- Airport Elevation : 1475 ft


LSZC - Buochs Stans

CURRENT METAR :
  • 182220Z AUTO 26005KT 220V300 CAVOK 21/17 Q1021

EXPIRED METARs :
  • 182150Z AUTO 26004KT CAVOK 21/17 Q1021
  • 182120Z AUTO 25003KT CAVOK 21/17 Q1021
  • 182050Z AUTO 25003KT CAVOK 21/17 Q1021
  • 182020Z AUTO 27004KT CAVOK 22/18 Q1021
  • 181950Z AUTO VRB03KT 9999 -RA BKN/// 22/18 Q1021
  • 181920Z AUTO 22005KT 170V300 CAVOK 23/18 Q1021
  • 181850Z AUTO 27005KT 240V310 CAVOK 23/18 Q1021
  • 181820Z AUTO 27004KT 230V300 CAVOK 24/18 Q1021
  • 181750Z AUTO 19003KT 170V250 CAVOK 25/19 Q1020

TAF TAF LSZC
Valid from the 18 at 15:00 until the 19 at 00:00 UTC


181425Z 1815/1824 VRB02KT CAVOK
TEMPO 1815/1818 9999 FEW050



MET'MAP, your aeronautical weather chart ! - Copyright ORBIFLY December 2007 - Disclaimer

ORBIFLY MET'MAP TEAM :

Programming & Development : Alexandra Zaïnal
Original concept : Baudouin d'Aumeries
Technical & hardware support : Manuel Goepfert
Assistance : Marc-Olivier Méhu




SOURCES & CREDITS :

   NOAA